Hobart, Indiana
Current Conditions -  °F | °C
As of 4:45 AM on Monday 29 Dec 2014 (Local Time) from KGYY Reporting Station
Scattered Clouds Scattered Clouds  
Wind Chill: 16°   Ceiling: Unl
Heat Index: 23°   Visibility: 10mi
Dew Point: 18°   Wind: 6mph
Humidity: 80%   Direction: 270°W
Pressure: 30.27"   Gusts: NA
Location:  41.53°N, 87.25°W
Report Text: KGYY 291045Z 27005KT 10SM SCT150 M05/M08 A3027 RMK FIRST
Loading
Personal Weather Stations






























Interactive Weather Map New forecast layout! Learn more

10-Day Weather Forecast

Advertisements
Track Severe Weather on mobile